Time;durP1;ratioP1;P1;durP2;ratioP2;P2;SDS_P1;SDS_P2;PMS_P1;PMS_P2;Temp;Humidity;BMP_temperature;BMP_pressure;BME280_temperature;BME280_humidity;BME280_pressure;Samples;Min_cycle;Max_cycle;Signal;HPM_P1;HPM_P2
2023/05/03 00:02:04;;;;;;;8.18;3.33;;;;;;;17.81;86.73;98368.22;4456293;32;20093;-80
2023/05/03 00:04:31;;;;;;;8.23;3.28;;;;;;;17.61;86.69;98370.34;4455968;32;20116;-80
2023/05/03 00:06:57;;;;;;;7.03;3.40;;;;;;;18.38;83.25;98366.00;4456165;32;20084;-80
2023/05/03 00:09:24;;;;;;;7.32;3.30;;;;;;;18.72;81.58;98367.16;4456153;32;20077;-80
2023/05/03 00:11:52;;;;;;;7.62;3.30;;;;;;;18.75;80.94;98364.31;4455688;32;20088;-80
2023/05/03 00:14:19;;;;;;;6.53;3.05;;;;;;;18.28;82.64;98369.37;4442350;32;20554;-80
2023/05/03 00:16:46;;;;;;;6.95;3.05;;;;;;;18.86;79.71;98362.72;4456132;32;20093;-80
2023/05/03 00:19:13;;;;;;;8.13;3.10;;;;;;;18.77;79.57;98362.41;4455712;32;20081;-80
2023/05/03 00:21:56;;;;;;;6.87;3.10;;;;;;;19.33;77.28;98369.72;4456127;32;20111;-80
2023/05/03 00:24:23;;;;;;;5.97;2.70;;;;;;;19.99;72.90;98365.69;4456135;32;20106;-80
2023/05/03 00:26:50;;;;;;;6.12;2.80;;;;;;;19.93;73.04;98371.38;4455690;32;20085;-80
2023/05/03 00:29:19;;;;;;;5.00;2.53;;;;;;;19.70;73.86;98364.44;4456047;32;20072;-80
2023/05/03 00:31:46;;;;;;;6.35;2.65;;;;;;;20.15;71.37;98358.31;4455871;32;20104;-80
2023/05/03 00:34:13;;;;;;;6.20;2.80;;;;;;;20.42;69.54;98352.78;4455722;32;20150;-80
2023/05/03 00:36:40;;;;;;;6.95;2.80;;;;;;;19.41;73.45;98359.53;4442064;32;20403;-80
2023/05/03 00:39:08;;;;;;;6.45;2.60;;;;;;;19.79;72.45;98358.50;4455705;32;20459;-80
2023/05/03 00:41:35;;;;;;;5.35;2.45;;;;;;;19.00;75.23;98347.69;4456097;32;20084;-80
2023/05/03 00:44:02;;;;;;;6.55;2.72;;;;;;;18.59;77.67;98342.78;4456098;32;20093;-80
2023/05/03 00:46:29;;;;;;;6.62;2.55;;;;;;;18.46;79.30;98344.59;4455521;32;20236;-80
2023/05/03 00:48:56;;;;;;;6.20;2.67;;;;;;;18.44;79.98;98344.69;4455054;32;20118;-80
2023/05/03 00:51:26;;;;;;;6.25;3.00;;;;;;;17.97;82.62;98344.50;4456227;32;20105;-80
2023/05/03 00:53:53;;;;;;;6.45;2.70;;;;;;;17.65;84.28;98344.88;4455612;32;20093;-80
2023/05/03 00:56:21;;;;;;;5.37;2.55;;;;;;;17.56;85.49;98348.13;4455874;32;20135;-80
2023/05/03 00:58:50;;;;;;;8.65;2.90;;;;;;;17.60;85.73;98352.19;4455927;32;20081;-80
2023/05/03 01:01:18;;;;;;;6.07;2.70;;;;;;;18.12;82.93;98348.72;4455609;32;20116;-80
2023/05/03 01:03:45;;;;;;;7.70;2.75;;;;;;;17.74;84.69;98352.13;4456123;32;20111;-80
2023/05/03 01:06:26;;;;;;;6.28;2.70;;;;;;;17.37;86.85;98345.06;4455896;32;20172;-80
2023/05/03 01:09:17;;;;;;;6.65;3.30;;;;;;;17.27;87.79;98347.41;4455678;32;20150;-80
2023/05/03 01:11:58;;;;;;;6.37;3.00;;;;;;;17.43;86.76;98348.06;4442485;32;20172;-80
2023/05/03 01:14:49;;;;;;;7.20;2.97;;;;;;;17.91;84.56;98346.63;4456281;32;20093;-80
2023/05/03 01:17:17;;;;;;;5.97;2.97;;;;;;;17.56;85.30;98348.97;4456623;32;20085;-80
2023/05/03 01:19:47;;;;;;;7.40;3.22;;;;;;;18.00;83.70;98349.56;4442742;32;20069;-80
2023/05/03 01:22:43;;;;;;;7.15;3.10;;;;;;;18.12;83.37;98346.94;4455897;32;20089;-80
2023/05/03 01:25:14;;;;;;;7.37;3.15;;;;;;;17.97;83.85;98345.38;4456305;32;20399;-80
2023/05/03 01:27:41;;;;;;;8.13;3.30;;;;;;;17.61;84.58;98346.03;4456066;32;20094;-80
2023/05/03 01:30:10;;;;;;;7.87;3.33;;;;;;;17.60;85.53;98345.19;4456053;32;20470;-80
2023/05/03 01:33:03;;;;;;;9.35;4.20;;;;;;;17.35;86.91;98348.59;4456661;32;20113;-80
2023/05/03 01:35:33;;;;;;;8.90;4.18;;;;;;;16.23;93.55;98356.53;4456238;32;20101;-80
2023/05/03 01:38:00;;;;;;;9.65;4.35;;;;;;;16.53;93.12;98345.19;4456280;32;20554;-80
2023/05/03 01:40:28;;;;;;;10.35;4.70;;;;;;;16.70;92.46;98355.44;4442658;32;20077;-80
2023/05/03 01:42:56;;;;;;;10.35;4.95;;;;;;;16.44;93.43;98347.41;4442103;32;20097;-80
2023/05/03 01:45:24;;;;;;;11.23;5.32;;;;;;;15.46;98.96;98348.97;4443148;32;20119;-80
2023/05/03 01:47:51;;;;;;;11.05;4.82;;;;;;;15.91;97.83;98351.50;4442550;32;20451;-80
2023/05/03 01:50:18;;;;;;;11.05;5.25;;;;;;;15.76;98.68;98342.00;4456439;32;20148;-80
2023/05/03 01:52:44;;;;;;;11.93;5.32;;;;;;;15.74;99.25;98349.09;4456777;32;20101;-79
2023/05/03 01:55:11;;;;;;;11.20;5.47;;;;;;;15.22;100.00;98349.44;4457042;32;20107;-80
2023/05/03 01:57:38;;;;;;;11.63;5.55;;;;;;;15.30;100.00;98346.41;4457073;32;20089;-80
2023/05/03 02:00:06;;;;;;;12.32;5.53;;;;;;;15.54;100.00;98349.38;4458435;32;20089;-80
2023/05/03 02:02:32;;;;;;;12.48;5.97;;;;;;;15.52;100.00;98351.19;4459440;32;20107;-80
2023/05/03 02:04:59;;;;;;;12.68;6.03;;;;;;;15.34;100.00;98342.72;4459137;32;20085;-79
2023/05/03 02:07:26;;;;;;;12.52;6.28;;;;;;;15.01;100.00;98338.50;4459305;32;20058;-79
2023/05/03 02:09:53;;;;;;;13.10;6.45;;;;;;;15.32;100.00;98341.97;4458830;32;20073;-79
2023/05/03 02:12:20;;;;;;;12.80;6.15;;;;;;;15.02;100.00;98337.59;4458797;32;20075;-80
2023/05/03 02:14:47;;;;;;;13.75;6.32;;;;;;;14.69;100.00;98332.50;4459862;32;20097;-80
2023/05/03 02:17:16;;;;;;;13.93;6.82;;;;;;;15.26;100.00;98343.16;4459209;32;20827;-80
2023/05/03 02:19:43;;;;;;;13.15;6.82;;;;;;;14.85;100.00;98342.03;4459672;32;20085;-79
2023/05/03 02:22:10;;;;;;;12.85;6.60;;;;;;;14.76;100.00;98331.22;4459796;32;20103;-80
2023/05/03 02:24:38;;;;;;;13.98;6.47;;;;;;;14.73;100.00;98336.59;4459362;32;20150;-79
2023/05/03 02:27:05;;;;;;;12.02;5.25;;;;;;;14.93;100.00;98334.66;4459990;32;20066;-80
2023/05/03 02:29:33;;;;;;;13.55;6.32;;;;;;;15.10;100.00;98342.34;4460086;32;20086;-80
2023/05/03 02:31:59;;;;;;;13.43;6.28;;;;;;;14.46;100.00;98341.53;4459673;32;20052;-80
2023/05/03 02:34:26;;;;;;;12.90;5.95;;;;;;;15.29;100.00;98350.75;4459593;32;20093;-79
2023/05/03 02:36:53;;;;;;;13.30;5.82;;;;;;;14.79;100.00;98348.41;4459149;32;20085;-80
2023/05/03 02:39:20;;;;;;;12.95;6.40;;;;;;;15.42;100.00;98350.06;4458760;32;20076;-80
2023/05/03 02:41:47;;;;;;;12.30;5.80;;;;;;;16.05;98.97;98348.06;4459136;32;20470;-80
2023/05/03 02:44:14;;;;;;;12.88;6.15;;;;;;;16.07;98.62;98358.41;4459189;32;20088;-80
2023/05/03 02:46:41;;;;;;;11.98;5.78;;;;;;;15.62;100.00;98342.81;4458530;32;20094;-80
2023/05/03 02:49:08;;;;;;;12.77;6.05;;;;;;;15.98;99.51;98349.38;4458903;32;20466;-80
2023/05/03 02:51:35;;;;;;;12.43;5.80;;;;;;;16.42;95.66;98345.84;4458838;32;20096;-80
2023/05/03 02:54:02;;;;;;;13.73;6.45;;;;;;;16.79;92.57;98349.63;4458770;32;20111;-80
2023/05/03 02:56:29;;;;;;;12.77;5.75;;;;;;;16.33;95.66;98355.06;4458395;32;20072;-80
2023/05/03 02:58:56;;;;;;;13.05;6.35;;;;;;;17.01;90.42;98343.88;4458561;32;20077;-80
2023/05/03 03:01:23;;;;;;;12.88;6.40;;;;;;;17.09;90.07;98344.22;4458228;32;20163;-80
2023/05/03 03:03:50;;;;;;;13.98;6.65;;;;;;;16.81;92.70;98354.75;4458882;32;20150;-80
2023/05/03 03:06:17;;;;;;;15.88;7.05;;;;;;;16.94;89.39;98359.09;4458270;32;20157;-80
2023/05/03 03:08:44;;;;;;;15.15;7.32;;;;;;;16.30;94.03;98350.03;4458143;32;20085;-80
2023/05/03 03:11:11;;;;;;;14.70;7.22;;;;;;;15.90;97.82;98354.19;4457225;32;20097;-80
2023/05/03 03:13:40;;;;;;;15.07;7.05;;;;;;;16.15;95.34;98350.94;4457817;32;20122;-80
2023/05/03 03:16:07;;;;;;;14.65;7.32;;;;;;;15.57;98.75;98349.19;4457772;32;20150;-80
2023/05/03 03:18:34;;;;;;;14.75;7.50;;;;;;;16.15;95.89;98350.94;4458014;32;20077;-80
2023/05/03 03:21:02;;;;;;;16.12;7.65;;;;;;;15.88;97.13;98356.91;4457655;32;20112;-80
2023/05/03 03:23:29;;;;;;;15.30;7.53;;;;;;;16.17;94.54;98352.56;4444628;32;20162;-80
2023/05/03 03:25:56;;;;;;;16.23;7.55;;;;;;;15.09;100.00;98351.03;4458867;32;20209;-80
2023/05/03 03:28:23;;;;;;;18.10;7.82;;;;;;;15.07;100.00;98350.31;4458074;32;20463;-79
2023/05/03 03:30:50;;;;;;;16.40;8.30;;;;;;;15.39;100.00;98356.28;4458764;32;20760;-80
2023/05/03 03:33:17;;;;;;;16.83;9.00;;;;;;;15.48;100.00;98350.56;4458635;32;20107;-80
2023/05/03 03:35:44;;;;;;;15.07;7.60;;;;;;;15.55;99.60;98351.03;4458133;32;20150;-80
2023/05/03 03:38:11;;;;;;;17.25;9.00;;;;;;;15.63;99.53;98356.69;4458502;32;20081;-80
2023/05/03 03:40:38;;;;;;;16.40;8.30;;;;;;;15.89;96.63;98355.97;4458591;32;20093;-80
2023/05/03 03:43:05;;;;;;;17.55;8.60;;;;;;;16.10;95.27;98356.44;4458308;32;20111;-80
2023/05/03 03:45:32;;;;;;;14.43;7.55;;;;;;;16.61;92.04;98355.97;4458761;32;20143;-80
2023/05/03 03:47:59;;;;;;;14.23;7.37;;;;;;;16.81;89.63;98363.41;4458878;32;20061;-80
2023/05/03 03:50:26;;;;;;;15.57;7.47;;;;;;;16.39;91.90;98359.06;4458751;32;20104;-80
2023/05/03 03:52:53;;;;;;;14.93;7.43;;;;;;;16.43;91.89;98355.31;4458783;32;20076;-80
2023/05/03 03:55:20;;;;;;;13.35;7.12;;;;;;;16.08;93.94;98363.53;4458731;32;20126;-80
2023/05/03 03:57:47;;;;;;;13.15;6.60;;;;;;;16.48;91.11;98358.47;4458474;32;20076;-80
2023/05/03 04:00:14;;;;;;;13.20;6.62;;;;;;;16.13;92.96;98360.63;4458750;32;20706;-80
2023/05/03 04:02:41;;;;;;;12.35;6.22;;;;;;;17.13;86.08;98363.13;4457932;32;20093;-80
2023/05/03 04:05:08;;;;;;;14.02;6.43;;;;;;;16.51;89.41;98362.69;4458320;32;20085;-80
2023/05/03 04:07:35;;;;;;;12.85;6.10;;;;;;;16.09;92.70;98372.16;4458188;32;20180;-80
2023/05/03 04:10:02;;;;;;;13.13;5.95;;;;;;;16.59;89.19;98368.22;4457735;32;20135;-80
2023/05/03 04:12:29;;;;;;;11.63;5.95;;;;;;;16.46;89.83;98371.59;4458063;32;20169;-80
2023/05/03 04:14:56;;;;;;;11.73;5.85;;;;;;;17.19;85.71;98370.53;4458735;32;20089;-80
2023/05/03 04:17:23;;;;;;;12.32;6.37;;;;;;;16.82;87.24;98377.28;4458167;32;20077;-80
2023/05/03 04:19:51;;;;;;;11.15;5.80;;;;;;;15.71;92.79;98377.03;4458082;32;20068;-80
2023/05/03 04:22:18;;;;;;;11.45;5.55;;;;;;;16.14;91.00;98377.91;4457507;32;20093;-80
2023/05/03 04:24:44;;;;;;;13.35;6.10;;;;;;;15.67;93.58;98373.78;4456191;32;20146;-79
2023/05/03 04:27:13;;;;;;;12.25;6.22;;;;;;;15.36;95.43;98373.81;4457698;32;20364;-80
2023/05/03 04:29:40;;;;;;;12.63;5.20;;;;;;;15.59;94.99;98368.97;4457441;32;20089;-79
2023/05/03 04:32:07;;;;;;;13.52;6.25;;;;;;;15.38;95.17;98371.97;4443019;32;20105;-79
2023/05/03 04:34:34;;;;;;;11.12;5.50;;;;;;;15.44;94.83;98367.25;4457356;32;20061;-80
2023/05/03 04:37:00;;;;;;;13.15;6.00;;;;;;;14.09;100.00;98360.75;4457324;32;20099;-80
2023/05/03 04:39:27;;;;;;;12.57;6.18;;;;;;;14.22;100.00;98357.53;4456733;32;20475;-80
2023/05/03 04:41:55;;;;;;;11.60;5.25;;;;;;;14.92;99.96;98366.75;4457017;32;20093;-79
2023/05/03 04:44:22;;;;;;;12.10;6.22;;;;;;;14.40;100.00;98375.56;4456980;32;20444;-79
2023/05/03 04:46:49;;;;;;;12.60;6.03;;;;;;;13.78;100.00;98384.00;4457063;32;20077;-79
2023/05/03 04:49:16;;;;;;;11.38;5.53;;;;;;;14.26;100.00;98390.19;4457611;32;20108;-80
2023/05/03 04:51:43;;;;;;;11.65;5.65;;;;;;;14.07;100.00;98392.91;4457335;32;20153;-79
2023/05/03 04:54:10;;;;;;;10.32;5.05;;;;;;;14.27;100.00;98395.31;4457539;32;20402;-79
2023/05/03 04:56:37;;;;;;;11.30;5.28;;;;;;;14.46;100.00;98390.88;4456871;32;20428;-79
2023/05/03 04:59:05;;;;;;;11.23;5.35;;;;;;;14.87;99.96;98395.56;4456411;32;20089;-80
2023/05/03 05:01:32;;;;;;;11.32;5.93;;;;;;;14.73;99.83;98404.12;4456739;32;20085;-80
2023/05/03 05:03:59;;;;;;;10.05;4.68;;;;;;;15.31;97.15;98403.53;4456374;32;20105;-80
2023/05/03 05:06:26;;;;;;;9.52;4.97;;;;;;;15.51;94.73;98402.38;4456341;32;20604;-80
2023/05/03 05:08:53;;;;;;;10.68;4.60;;;;;;;16.08;91.62;98405.16;4457176;32;20101;-80
2023/05/03 05:11:21;;;;;;;9.77;5.10;;;;;;;16.20;89.95;98409.63;4456949;32;20089;-80
2023/05/03 05:13:48;;;;;;;8.75;4.32;;;;;;;16.34;90.24;98411.41;4456583;32;20100;-80
2023/05/03 05:16:15;;;;;;;9.77;4.15;;;;;;;16.58;87.97;98422.09;4456642;32;20077;-80
2023/05/03 05:18:42;;;;;;;10.82;4.70;;;;;;;16.44;88.54;98422.09;4457027;32;20446;-80
2023/05/03 05:21:09;;;;;;;9.18;4.28;;;;;;;16.18;89.09;98427.12;4456442;32;20103;-80
2023/05/03 05:23:36;;;;;;;8.48;4.15;;;;;;;17.03;85.79;98433.25;4456323;32;20154;-80
2023/05/03 05:26:03;;;;;;;9.15;4.40;;;;;;;16.63;87.54;98440.06;4456381;32;20096;-80
2023/05/03 05:28:31;;;;;;;8.90;3.95;;;;;;;15.83;91.75;98436.97;4441890;32;20118;-80
2023/05/03 05:30:58;;;;;;;9.38;4.37;;;;;;;17.03;85.19;98435.88;4456224;32;20435;-80
2023/05/03 05:33:25;;;;;;;7.75;3.67;;;;;;;17.37;82.80;98441.56;4456563;32;20154;-80
2023/05/03 05:35:51;;;;;;;8.18;3.62;;;;;;;17.06;84.05;98443.50;4457755;32;20073;-80
2023/05/03 05:38:18;;;;;;;9.30;4.07;;;;;;;17.11;83.62;98432.75;4458979;32;20112;-79
2023/05/03 05:40:45;;;;;;;8.10;3.72;;;;;;;17.22;83.03;98436.34;4458241;32;20101;-79
2023/05/03 05:43:12;;;;;;;7.45;3.55;;;;;;;17.34;83.26;98427.78;4457252;32;20100;-79
2023/05/03 05:45:39;;;;;;;7.50;3.33;;;;;;;16.39;88.74;98440.63;4457279;32;20108;-80
2023/05/03 05:48:07;;;;;;;7.68;3.47;;;;;;;16.49;88.10;98433.09;4456879;32;20111;-79
2023/05/03 05:50:34;;;;;;;7.62;3.40;;;;;;;16.17;90.69;98429.81;4457652;32;20117;-80
2023/05/03 05:53:01;;;;;;;7.15;3.20;;;;;;;16.78;86.24;98441.75;4460036;32;20108;-79
2023/05/03 05:55:28;;;;;;;8.15;3.35;;;;;;;16.00;91.25;98437.78;4460077;32;20110;-79
2023/05/03 05:57:55;;;;;;;7.78;3.47;;;;;;;16.20;89.55;98461.72;4459110;32;20093;-79
2023/05/03 06:00:23;;;;;;;7.20;3.53;;;;;;;15.87;91.70;98456.72;4462573;32;20088;-79
2023/05/03 06:02:50;;;;;;;6.97;3.20;;;;;;;15.90;92.92;98463.50;4461104;32;20089;-79
2023/05/03 06:05:17;;;;;;;7.57;3.53;;;;;;;14.57;100.00;98470.78;4459097;32;20146;-79
2023/05/03 06:07:44;;;;;;;8.50;3.70;;;;;;;15.49;97.03;98464.03;4459112;32;20065;-79
2023/05/03 06:10:11;;;;;;;7.68;3.47;;;;;;;15.78;95.32;98472.84;4463678;32;20093;-78
2023/05/03 06:12:38;;;;;;;8.63;4.10;;;;;;;14.86;100.00;98478.78;4466060;32;20102;-78
2023/05/03 06:15:06;;;;;;;9.18;4.15;;;;;;;14.32;100.00;98472.94;4466137;32;20080;-78
2023/05/03 06:17:34;;;;;;;8.20;3.53;;;;;;;14.50;100.00;98477.22;4464277;32;20089;-78
2023/05/03 06:20:02;;;;;;;7.05;2.83;;;;;;;14.38;100.00;98483.84;4461056;32;20053;-78
2023/05/03 06:22:30;;;;;;;8.13;3.47;;;;;;;14.27;100.00;98485.31;4460228;32;20120;-78
2023/05/03 06:24:57;;;;;;;8.13;3.40;;;;;;;14.21;100.00;98494.22;4466730;32;20066;-78
2023/05/03 06:27:24;;;;;;;7.65;3.40;;;;;;;13.68;100.00;98489.09;4468903;32;20076;-79
2023/05/03 06:29:52;;;;;;;9.05;3.50;;;;;;;13.98;100.00;98490.19;4468581;32;20122;-78
2023/05/03 06:32:20;;;;;;;7.75;3.40;;;;;;;13.78;100.00;98487.72;4470571;32;20099;-78
2023/05/03 06:34:48;;;;;;;8.55;3.42;;;;;;;14.04;100.00;98487.31;4469855;32;20597;-78
2023/05/03 06:37:16;;;;;;;8.50;4.00;;;;;;;14.54;100.00;98496.91;4469135;32;20061;-77
2023/05/03 06:39:43;;;;;;;6.05;2.83;;;;;;;14.12;100.00;98492.94;4467249;32;20066;-78
2023/05/03 06:42:10;;;;;;;8.57;3.95;;;;;;;13.82;100.00;98484.06;4465884;32;20072;-80
2023/05/03 06:44:37;;;;;;;8.93;3.70;;;;;;;13.55;100.00;98491.44;4456340;32;20089;-80
2023/05/03 06:47:03;;;;;;;10.10;4.45;;;;;;;13.16;100.00;98488.91;4455862;32;20093;-86
2023/05/03 06:49:31;;;;;;;11.45;4.82;;;;;;;13.46;100.00;98486.69;4456347;32;20096;-80
2023/05/03 06:51:58;;;;;;;10.60;5.03;;;;;;;13.94;100.00;98483.50;4442568;32;20104;-80
2023/05/03 06:54:25;;;;;;;11.52;5.40;;;;;;;13.66;100.00;98486.56;4456462;32;20085;-80
2023/05/03 06:56:52;;;;;;;11.40;5.70;;;;;;;13.72;100.00;98488.06;4456569;32;20089;-80
2023/05/03 06:59:19;;;;;;;11.12;5.25;;;;;;;14.72;100.00;98493.34;4442235;32;20093;-80
2023/05/03 07:01:46;;;;;;;12.40;6.00;;;;;;;14.83;100.00;98502.34;4456737;32;20447;-80
2023/05/03 07:04:13;;;;;;;11.77;5.62;;;;;;;14.82;100.00;98498.06;4456571;32;20077;-81
2023/05/03 07:06:40;;;;;;;10.70;5.18;;;;;;;15.34;100.00;98502.16;4456128;32;20153;-81
2023/05/03 07:09:22;;;;;;;10.68;5.22;;;;;;;15.03;100.00;98502.13;4444253;32;20154;-81
2023/05/03 07:12:07;;;;;;;10.43;5.07;;;;;;;15.49;100.00;98495.25;4456149;32;20081;-81
2023/05/03 07:14:34;;;;;;;10.32;4.97;;;;;;;16.36;97.35;98505.06;4456557;32;20077;-81
2023/05/03 07:17:01;;;;;;;11.23;4.57;;;;;;;17.20;91.94;98505.19;4442587;32;20092;-82
2023/05/03 07:19:28;;;;;;;10.90;4.75;;;;;;;16.37;94.87;98512.78;4456080;32;20101;-82
2023/05/03 07:21:55;;;;;;;10.00;4.30;;;;;;;17.04;90.65;98513.97;4456597;32;20104;-82
2023/05/03 07:24:24;;;;;;;8.82;4.30;;;;;;;17.44;88.95;98515.84;4456512;32;20139;-82
2023/05/03 07:26:54;;;;;;;9.35;4.28;;;;;;;17.84;87.10;98514.19;4456074;32;20497;-81
2023/05/03 07:29:21;;;;;;;8.70;3.90;;;;;;;16.87;90.43;98516.75;4456353;32;20100;-82
2023/05/03 07:31:48;;;;;;;9.43;4.10;;;;;;;16.03;94.44;98511.31;4456522;32;20089;-82
2023/05/03 07:34:18;;;;;;;8.00;3.78;;;;;;;15.66;97.46;98519.53;4456248;32;20110;-81
2023/05/03 07:36:45;;;;;;;9.70;4.55;;;;;;;16.37;94.45;98517.97;4456380;32;20101;-81
2023/05/03 07:39:12;;;;;;;8.57;3.97;;;;;;;16.12;96.63;98517.75;4456370;32;20145;-82
2023/05/03 07:41:39;;;;;;;9.52;4.37;;;;;;;15.85;97.88;98517.56;4456145;32;20095;-82
2023/05/03 07:44:06;;;;;;;9.18;4.07;;;;;;;16.09;97.57;98510.97;4456242;32;20076;-82
2023/05/03 07:46:34;;;;;;;9.05;4.40;;;;;;;16.33;94.50;98516.50;4456235;32;20112;-81
2023/05/03 07:49:05;;;;;;;8.93;4.03;;;;;;;15.75;98.69;98513.81;4455888;32;20089;-81
2023/05/03 07:51:35;;;;;;;9.43;4.30;;;;;;;15.90;94.90;98507.72;4456358;32;20450;-81
2023/05/03 07:54:03;;;;;;;8.55;4.07;;;;;;;15.66;97.20;98507.34;4456038;32;20579;-81
2023/05/03 07:56:30;;;;;;;12.23;4.37;;;;;;;15.95;95.56;98512.66;4456234;32;20093;-81
2023/05/03 07:58:57;;;;;;;8.35;3.62;;;;;;;16.60;92.50;98508.00;4455884;32;20105;-81
2023/05/03 08:01:35;;;;;;;8.77;4.10;;;;;;;16.84;90.50;98514.34;4443373;32;20552;-81
2023/05/03 08:04:03;;;;;;;8.65;4.00;;;;;;;16.83;89.50;98517.91;4456144;32;20073;-81
2023/05/03 08:06:31;;;;;;;8.90;4.07;;;;;;;16.42;91.64;98512.53;4456172;32;20119;-81
2023/05/03 08:08:58;;;;;;;9.98;4.10;;;;;;;16.97;89.36;98519.66;4455781;32;20476;-81
2023/05/03 08:11:28;;;;;;;8.85;4.20;;;;;;;16.34;92.62;98519.94;4455744;32;20238;-81
2023/05/03 08:13:55;;;;;;;8.90;3.78;;;;;;;16.86;90.89;98528.13;4456158;32;20144;-81
2023/05/03 08:16:22;;;;;;;8.23;3.90;;;;;;;17.41;86.98;98529.94;4455625;32;20168;-81
2023/05/03 08:18:50;;;;;;;8.77;4.20;;;;;;;17.47;84.93;98526.94;4456056;32;20093;-81
2023/05/03 08:21:17;;;;;;;9.82;4.53;;;;;;;16.86;88.72;98524.69;4456198;32;20138;-80
2023/05/03 08:23:45;;;;;;;8.82;4.20;;;;;;;16.25;94.07;98523.91;4455652;32;20439;-81
2023/05/03 08:26:12;;;;;;;10.02;4.35;;;;;;;16.58;92.31;98526.28;4442091;32;20096;-81
2023/05/03 08:28:40;;;;;;;9.32;4.28;;;;;;;15.89;95.92;98535.50;4456009;32;20150;-81
2023/05/03 08:31:07;;;;;;;8.57;4.05;;;;;;;15.85;94.99;98534.03;4455734;32;20097;-82
2023/05/03 08:33:34;;;;;;;10.85;4.50;;;;;;;16.10;93.93;98527.41;4456072;32;20485;-81
2023/05/03 08:36:01;;;;;;;8.50;4.05;;;;;;;16.43;92.81;98525.44;4455892;32;20421;-81
2023/05/03 08:38:29;;;;;;;10.95;4.37;;;;;;;16.88;91.33;98534.06;4455878;32;20105;-81
2023/05/03 08:40:57;;;;;;;8.68;3.75;;;;;;;17.42;88.46;98530.78;4456012;32;20103;-80
2023/05/03 08:43:27;;;;;;;8.88;4.00;;;;;;;17.33;89.08;98532.19;4455474;32;20105;-81
2023/05/03 08:45:54;;;;;;;8.00;3.53;;;;;;;17.80;85.61;98536.22;4455801;32;20152;-80
2023/05/03 08:48:22;;;;;;;8.65;4.05;;;;;;;18.08;83.68;98538.72;4455820;32;20123;-80
2023/05/03 08:50:50;;;;;;;8.15;3.50;;;;;;;17.77;85.67;98536.41;4441668;32;20100;-81
2023/05/03 08:53:17;;;;;;;8.25;3.37;;;;;;;17.54;87.18;98530.81;4455731;32;20077;-81
2023/05/03 08:55:44;;;;;;;8.25;3.87;;;;;;;17.56;86.00;98541.19;4455799;32;20107;-82
2023/05/03 08:58:11;;;;;;;8.93;3.87;;;;;;;17.89;85.05;98541.66;4455348;32;20120;-80
2023/05/03 09:00:43;;;;;;;8.70;3.60;;;;;;;17.27;86.65;98551.66;4441934;32;20420;-81
2023/05/03 09:03:10;;;;;;;7.37;3.37;;;;;;;17.06;90.43;98547.78;4455794;32;20081;-81
2023/05/03 09:05:39;;;;;;;8.82;3.67;;;;;;;17.33;87.68;98551.31;4455324;32;20100;-81
2023/05/03 09:08:10;;;;;;;7.68;3.30;;;;;;;17.78;85.35;98551.13;4455486;32;20097;-82
2023/05/03 09:10:39;;;;;;;7.68;3.40;;;;;;;17.69;85.68;98549.94;4454843;32;20182;-80
2023/05/03 09:13:07;;;;;;;8.88;4.15;;;;;;;18.11;84.08;98554.16;4455084;32;20145;-81
2023/05/03 09:15:34;;;;;;;8.25;3.33;;;;;;;17.47;86.83;98553.03;4455623;32;20110;-80
2023/05/03 09:18:20;;;;;;;8.15;3.65;;;;;;;18.12;85.77;98557.62;4455351;32;20111;-81
2023/05/03 09:20:50;;;;;;;7.30;3.20;;;;;;;17.55;87.97;98560.37;4455579;32;20084;-80
2023/05/03 09:23:24;;;;;;;9.07;4.07;;;;;;;17.97;85.53;98559.47;4455417;32;20408;-81
2023/05/03 09:25:51;;;;;;;7.03;3.12;;;;;;;18.63;82.18;98560.31;4455062;32;20101;-81
2023/05/03 09:28:19;;;;;;;7.62;3.00;;;;;;;19.23;78.60;98562.31;4455294;32;20467;-81
2023/05/03 09:30:47;;;;;;;7.90;3.10;;;;;;;18.44;81.02;98556.31;4455363;32;20156;-80
2023/05/03 09:33:21;;;;;;;6.68;2.90;;;;;;;18.63;82.03;98552.50;4454947;32;20089;-81
2023/05/03 09:36:09;;;;;;;6.28;3.00;;;;;;;18.93;81.86;98554.84;4442285;32;20108;-82
2023/05/03 09:38:36;;;;;;;5.82;2.62;;;;;;;18.69;83.22;98554.69;4455116;32;20112;-81
2023/05/03 09:41:06;;;;;;;6.43;2.92;;;;;;;18.89;79.59;98555.97;4455008;32;20089;-80
2023/05/03 09:43:36;;;;;;;7.45;3.08;;;;;;;18.66;81.61;98554.91;4441547;32;20138;-81
2023/05/03 09:46:10;;;;;;;5.70;2.80;;;;;;;19.03;82.14;98559.31;4454879;32;20408;-81
2023/05/03 09:48:37;;;;;;;6.45;2.97;;;;;;;18.52;82.62;98555.81;4454659;32;20154;-82
2023/05/03 09:51:05;;;;;;;6.45;3.00;;;;;;;19.23;78.85;98563.13;4455106;32;20612;-80
2023/05/03 09:53:33;;;;;;;7.10;3.10;;;;;;;19.13;80.26;98556.88;4440508;32;20399;-82
2023/05/03 09:56:07;;;;;;;7.65;3.17;;;;;;;18.86;80.04;98551.78;4440802;32;20117;-81
2023/05/03 09:58:35;;;;;;;6.87;2.97;;;;;;;19.58;78.44;98559.87;4454671;32;20097;-81
2023/05/03 10:01:02;;;;;;;6.50;3.05;;;;;;;19.17;78.47;98557.53;4440397;32;20088;-81
2023/05/03 10:03:40;;;;;;;7.50;3.47;;;;;;;18.91;80.31;98556.69;4454652;32;20073;-81
2023/05/03 10:06:27;;;;;;;7.37;3.20;;;;;;;18.70;81.73;98562.44;4455035;32;20116;-83
2023/05/03 10:09:04;;;;;;;7.35;3.30;;;;;;;19.04;81.42;98558.38;4454246;32;20089;-84
2023/05/03 10:11:34;;;;;;;7.10;3.37;;;;;;;18.57;81.70;98556.34;4454456;32;20077;-83
2023/05/03 10:14:01;;;;;;;6.70;3.20;;;;;;;17.63;86.21;98560.72;4440737;32;20458;-83
2023/05/03 10:16:33;;;;;;;9.15;3.85;;;;;;;17.42;88.61;98556.84;4440603;32;20440;-82
2023/05/03 10:19:32;;;;;;;7.22;3.42;;;;;;;18.43;83.31;98554.66;4454527;32;20097;-82
2023/05/03 10:22:04;;;;;;;7.30;3.15;;;;;;;18.50;82.16;98558.53;4388927;32;20518;-83
2023/05/03 10:24:34;;;;;;;6.97;3.37;;;;;;;18.41;83.89;98558.31;4443961;32;20077;-83
2023/05/03 10:27:02;;;;;;;10.35;3.83;;;;;;;18.19;84.99;98546.69;4456947;32;20536;-83
2023/05/03 10:29:36;;;;;;;8.43;3.30;;;;;;;18.91;81.24;98552.28;4457204;32;20150;-83
2023/05/03 10:32:04;;;;;;;10.95;3.62;;;;;;;18.63;82.01;98555.94;4457902;32;20179;-82
2023/05/03 10:34:34;;;;;;;6.90;3.08;;;;;;;19.04;80.18;98552.31;4459643;32;20115;-82
2023/05/03 10:37:08;;;;;;;6.80;3.05;;;;;;;18.71;82.66;98550.19;4457413;32;20113;-83
2023/05/03 10:39:35;;;;;;;7.80;3.53;;;;;;;18.89;79.53;98541.12;4444103;32;20415;-82
2023/05/03 10:42:05;;;;;;;8.40;3.62;;;;;;;18.50;83.10;98544.63;4456833;32;20089;-82
2023/05/03 10:44:53;;;;;;;6.53;3.50;;;;;;;18.11;85.22;98542.88;4456194;32;20089;-82
2023/05/03 10:47:24;;;;;;;7.85;3.40;;;;;;;18.24;84.90;98542.91;4456612;32;20093;-82
2023/05/03 10:50:15;;;;;;;8.05;3.30;;;;;;;19.18;82.16;98538.25;4456195;32;20100;-82
2023/05/03 10:52:42;;;;;;;7.05;3.12;;;;;;;18.58;83.58;98547.56;4442784;32;20160;-82
2023/05/03 10:55:16;;;;;;;8.05;4.00;;;;;;;17.10;89.48;98535.38;4456623;32;20103;-82
2023/05/03 10:57:45;;;;;;;7.03;3.45;;;;;;;18.21;85.02;98539.56;4456306;32;20093;-81
2023/05/03 11:00:22;;;;;;;7.47;3.30;;;;;;;19.38;77.84;98537.69;4442809;32;20101;-82
2023/05/03 11:03:24;;;;;;;9.18;3.70;;;;;;;19.50;76.04;98536.00;4442945;32;20146;-82
2023/05/03 11:05:51;;;;;;;7.53;3.42;;;;;;;19.17;76.93;98549.69;4456446;32;20103;-83
2023/05/03 11:08:20;;;;;;;7.87;3.45;;;;;;;18.75;78.23;98547.28;4456274;32;20444;-83
2023/05/03 11:10:50;;;;;;;7.90;3.80;;;;;;;18.21;81.50;98542.19;4456284;32;20158;-84
2023/05/03 11:13:17;;;;;;;9.20;3.70;;;;;;;18.20;82.07;98540.50;4456776;32;20386;-82
2023/05/03 11:15:44;;;;;;;7.50;3.33;;;;;;;18.49;82.46;98543.78;4456410;32;20105;-82
2023/05/03 11:18:14;;;;;;;6.53;3.17;;;;;;;19.02;80.46;98551.56;4442377;32;20105;-82
2023/05/03 11:20:41;;;;;;;5.90;3.10;;;;;;;19.18;76.56;98553.97;4442657;32;20139;-83
2023/05/03 11:23:08;;;;;;;8.07;3.42;;;;;;;18.93;79.51;98550.44;4456450;32;20089;-82
2023/05/03 11:25:35;;;;;;;7.07;3.12;;;;;;;18.85;78.52;98551.91;4456011;32;20097;-81
2023/05/03 11:28:05;;;;;;;7.47;2.97;;;;;;;18.98;78.12;98553.56;4456360;32;20093;-81
2023/05/03 11:30:34;;;;;;;6.53;2.92;;;;;;;18.61;79.55;98554.34;4456384;32;20112;-81
2023/05/03 11:33:00;;;;;;;6.18;3.10;;;;;;;17.82;85.58;98553.44;4441491;32;20115;-81
2023/05/03 11:35:28;;;;;;;8.43;2.90;;;;;;;17.93;80.87;98547.53;4456243;32;20096;-82
2023/05/03 11:37:56;;;;;;;7.93;3.40;;;;;;;17.70;86.47;98550.78;4456054;32;20491;-82